Time;durP1;ratioP1;P1;durP2;ratioP2;P2;SDS_P1;SDS_P2;PMS_P1;PMS_P2;Temp;Humidity;BMP_temperature;BMP_pressure;BME280_temperature;BME280_humidity;BME280_pressure;Samples;Min_cycle;Max_cycle;Signal;HPM_P1;HPM_P2
2023/11/09 00:00:14;;;;;;;7.87;7.57;;;8.40;99.90;;;;;;5076454;28;20447;-80
2023/11/09 00:02:43;;;;;;;7.43;7.13;;;8.40;99.90;;;;;;5081880;28;20467;-82
2023/11/09 00:05:11;;;;;;;7.80;7.60;;;8.50;99.90;;;;;;5071844;28;20496;-80
2023/11/09 00:07:41;;;;;;;7.97;7.57;;;8.50;99.90;;;;;;5079966;28;20439;-82
2023/11/09 00:10:10;;;;;;;7.40;7.20;;;8.40;99.90;;;;;;5071349;28;20466;-81
2023/11/09 00:12:40;;;;;;;8.60;8.20;;;8.40;99.90;;;;;;5077170;28;20492;-81
2023/11/09 00:15:09;;;;;;;9.20;8.70;;;8.40;99.90;;;;;;5070366;28;20536;-81
2023/11/09 00:17:40;;;;;;;8.10;7.80;;;8.50;99.90;;;;;;5076297;28;20474;-81
2023/11/09 00:20:11;;;;;;;7.40;7.20;;;8.40;99.90;;;;;;5077476;28;20968;-79
2023/11/09 00:22:41;;;;;;;7.37;7.07;;;8.40;99.90;;;;;;5079882;28;20468;-80
2023/11/09 00:25:09;;;;;;;7.50;7.30;;;8.40;99.90;;;;;;5078509;28;20536;-80
2023/11/09 00:27:41;;;;;;;7.77;7.57;;;8.40;99.90;;;;;;5076872;28;20463;-83
2023/11/09 00:30:13;;;;;;;7.50;7.30;;;8.40;99.90;;;;;;5077544;28;21058;-83
2023/11/09 00:32:41;;;;;;;8.03;7.73;;;8.50;99.90;;;;;;5082146;28;20488;-81
2023/11/09 00:35:13;;;;;;;7.70;7.40;;;8.50;99.90;;;;;;5081004;28;20555;-81
2023/11/09 00:37:42;;;;;;;7.90;7.60;;;8.50;99.90;;;;;;5081738;28;21276;-82
2023/11/09 00:40:12;;;;;;;7.30;7.10;;;8.50;99.90;;;;;;5078325;28;20434;-81
2023/11/09 00:42:40;;;;;;;7.80;7.60;;;8.50;99.90;;;;;;5080309;28;20506;-80
2023/11/09 00:45:11;;;;;;;8.07;7.83;;;8.50;99.90;;;;;;5072463;28;20513;-81
2023/11/09 00:47:40;;;;;;;7.40;7.20;;;8.50;99.90;;;;;;5079650;28;20455;-81
2023/11/09 00:50:10;;;;;;;7.53;7.23;;;8.50;99.90;;;;;;5076177;28;20471;-79
2023/11/09 00:52:40;;;;;;;8.23;7.63;;;8.60;99.90;;;;;;5077814;28;20463;-81
2023/11/09 00:55:09;;;;;;;7.70;7.50;;;8.50;99.90;;;;;;5076229;28;20442;-80
2023/11/09 00:57:37;;;;;;;7.50;7.30;;;8.50;99.90;;;;;;5078937;28;20446;-80
2023/11/09 01:00:06;;;;;;;7.73;7.53;;;8.50;99.90;;;;;;5070413;28;20451;-79
2023/11/09 01:02:39;;;;;;;7.93;7.63;;;8.50;99.90;;;;;;5069218;28;20512;-80
2023/11/09 01:05:08;;;;;;;7.63;7.43;;;8.50;99.90;;;;;;5073506;28;20478;-81
2023/11/09 01:07:38;;;;;;;8.40;8.00;;;8.50;99.90;;;;;;5072471;28;20455;-80
2023/11/09 01:10:07;;;;;;;8.07;7.67;;;8.40;99.90;;;;;;5074998;28;20517;-81
2023/11/09 01:12:35;;;;;;;7.60;7.30;;;8.40;99.90;;;;;;5074339;28;20478;-83
2023/11/09 01:15:05;;;;;;;7.40;7.13;;;8.50;99.90;;;;;;5074530;28;20460;-80
2023/11/09 01:17:38;;;;;;;8.13;7.83;;;8.50;99.90;;;;;;5076920;28;20469;-81
2023/11/09 01:20:08;;;;;;;7.40;7.20;;;8.40;99.90;;;;;;5078192;28;20459;-81
2023/11/09 01:22:38;;;;;;;8.00;7.70;;;8.40;99.90;;;;;;5076204;28;20523;-80
2023/11/09 01:25:08;;;;;;;7.80;7.60;;;8.40;99.90;;;;;;5078023;28;20453;-81
2023/11/09 01:27:36;;;;;;;7.47;7.27;;;8.40;99.90;;;;;;5082123;28;20455;-80
2023/11/09 01:30:04;;;;;;;6.93;6.73;;;8.40;99.90;;;;;;5082383;28;20530;-82
2023/11/09 01:32:33;;;;;;;7.67;7.33;;;8.50;99.90;;;;;;5080114;28;20483;-80
2023/11/09 01:35:02;;;;;;;7.57;7.27;;;8.50;99.90;;;;;;5079177;28;20474;-81
2023/11/09 01:37:30;;;;;;;7.40;7.10;;;8.40;99.90;;;;;;5087567;28;20540;-80
2023/11/09 01:40:00;;;;;;;7.87;7.67;;;8.40;99.90;;;;;;5083630;28;20474;-81
2023/11/09 01:42:31;;;;;;;7.43;7.10;;;8.50;99.90;;;;;;5080985;28;20510;-80
2023/11/09 01:44:59;;;;;;;7.40;7.20;;;8.40;99.90;;;;;;5080758;28;21079;-82
2023/11/09 01:47:27;;;;;;;7.70;7.37;;;8.40;99.90;;;;;;5079883;28;20477;-82
2023/11/09 01:49:55;;;;;;;7.97;7.77;;;8.40;99.90;;;;;;5083180;28;20480;-81
2023/11/09 01:52:24;;;;;;;8.00;7.70;;;8.40;99.90;;;;;;5081695;28;20495;-81
2023/11/09 01:54:52;;;;;;;7.67;7.47;;;8.40;99.90;;;;;;5081339;28;20467;-82
2023/11/09 01:57:23;;;;;;;7.80;7.50;;;8.40;99.90;;;;;;5087869;28;20443;-84
2023/11/09 01:59:53;;;;;;;8.10;7.73;;;8.40;99.90;;;;;;5086782;28;20439;-79
2023/11/09 02:02:22;;;;;;;7.70;7.40;;;8.30;99.90;;;;;;5083883;28;20487;-80
2023/11/09 02:04:50;;;;;;;7.70;7.50;;;8.30;99.90;;;;;;5081139;28;20459;-80
2023/11/09 02:07:19;;;;;;;7.93;7.63;;;8.30;99.90;;;;;;5076687;28;20464;-81
2023/11/09 02:09:49;;;;;;;7.60;7.30;;;8.30;99.90;;;;;;5078878;28;20474;-80
2023/11/09 02:12:17;;;;;;;7.57;7.27;;;8.30;99.90;;;;;;5082453;28;20482;-79
2023/11/09 02:14:46;;;;;;;7.30;7.10;;;8.30;99.90;;;;;;5081524;28;20608;-81
2023/11/09 02:17:15;;;;;;;7.20;6.90;;;8.30;99.90;;;;;;5080408;28;20454;-83
2023/11/09 02:19:45;;;;;;;7.93;7.63;;;8.30;99.90;;;;;;5080857;28;20980;-83
2023/11/09 02:22:17;;;;;;;7.63;7.43;;;8.30;99.90;;;;;;5087311;28;20458;-83
2023/11/09 02:24:50;;;;;;;7.50;7.20;;;8.30;99.90;;;;;;5083678;28;20451;-82
2023/11/09 02:27:19;;;;;;;7.43;7.13;;;8.20;99.90;;;;;;5086145;28;20461;-82
2023/11/09 02:29:47;;;;;;;7.63;7.30;;;8.20;99.90;;;;;;5087004;28;20479;-82
2023/11/09 02:32:17;;;;;;;7.17;6.97;;;8.30;99.90;;;;;;5084795;28;20481;-81
2023/11/09 02:34:48;;;;;;;7.60;7.40;;;8.30;99.90;;;;;;5081550;28;20447;-83
2023/11/09 02:37:19;;;;;;;8.33;8.03;;;8.40;99.90;;;;;;5084761;28;20502;-80
2023/11/09 02:39:53;;;;;;;7.60;7.13;;;8.50;99.90;;;;;;5081202;28;20458;-80
2023/11/09 02:42:23;;;;;;;7.03;6.73;;;8.50;99.90;;;;;;5083085;28;20465;-82
2023/11/09 02:44:52;;;;;;;7.40;7.20;;;8.50;99.90;;;;;;5077194;28;20830;-82
2023/11/09 02:47:21;;;;;;;7.53;7.23;;;8.50;99.90;;;;;;5078560;28;20464;-80
2023/11/09 02:49:50;;;;;;;7.50;7.30;;;8.40;99.90;;;;;;5082309;28;20452;-80
2023/11/09 02:52:18;;;;;;;8.03;7.83;;;8.40;99.90;;;;;;5080180;28;20561;-81
2023/11/09 02:54:48;;;;;;;7.40;7.20;;;8.30;99.90;;;;;;5080383;28;20455;-81
2023/11/09 02:57:18;;;;;;;7.43;7.13;;;8.20;99.90;;;;;;5075983;28;20459;-80
2023/11/09 02:59:47;;;;;;;7.40;7.10;;;8.30;99.90;;;;;;5080421;28;20464;-81
2023/11/09 03:02:16;;;;;;;8.13;7.83;;;8.30;99.90;;;;;;5080461;28;20494;-83
2023/11/09 03:04:44;;;;;;;7.90;7.40;;;8.40;99.90;;;;;;5080221;28;21043;-81
2023/11/09 03:07:13;;;;;;;7.50;7.30;;;8.30;99.90;;;;;;5081020;28;20481;-83
2023/11/09 03:09:41;;;;;;;7.50;7.20;;;8.40;99.90;;;;;;5079439;28;20447;-81
2023/11/09 03:12:10;;;;;;;7.97;7.57;;;8.40;99.90;;;;;;5081454;28;21078;-83
2023/11/09 03:14:40;;;;;;;8.00;7.60;;;8.40;99.90;;;;;;5079358;28;20850;-80
2023/11/09 03:17:10;;;;;;;7.90;7.70;;;8.30;99.90;;;;;;5084491;28;20490;-84
2023/11/09 03:19:41;;;;;;;8.30;8.00;;;8.30;99.90;;;;;;5088739;28;20455;-83
2023/11/09 03:22:10;;;;;;;8.00;7.70;;;8.30;99.90;;;;;;5091009;28;20477;-82
2023/11/09 03:24:41;;;;;;;9.03;8.00;;;8.30;99.90;;;;;;5085437;28;20477;-83
2023/11/09 03:27:10;;;;;;;7.67;7.43;;;8.30;99.90;;;;;;5084993;28;20488;-81
2023/11/09 03:29:40;;;;;;;7.43;7.17;;;8.30;99.90;;;;;;5086288;28;20470;-81
2023/11/09 03:32:09;;;;;;;8.20;7.60;;;8.30;99.90;;;;;;5086740;28;20551;-80
2023/11/09 03:34:38;;;;;;;9.07;8.60;;;8.30;99.90;;;;;;5083310;28;20458;-79
2023/11/09 03:37:07;;;;;;;8.20;7.90;;;8.30;99.90;;;;;;5086314;28;20478;-79
2023/11/09 03:39:35;;;;;;;8.90;8.30;;;8.30;99.90;;;;;;5078556;28;20454;-82
2023/11/09 03:42:05;;;;;;;8.00;7.70;;;8.30;99.90;;;;;;5078721;28;20509;-79
2023/11/09 03:44:35;;;;;;;7.90;7.60;;;8.30;99.90;;;;;;5077499;28;20478;-80
2023/11/09 03:47:05;;;;;;;7.90;7.60;;;8.30;99.90;;;;;;5074145;28;20450;-81
2023/11/09 03:49:42;;;;;;;7.80;7.60;;;8.30;99.90;;;;;;5084540;28;20800;-81
2023/11/09 03:52:11;;;;;;;7.57;7.27;;;8.30;99.90;;;;;;5080451;28;20478;-81
2023/11/09 03:54:39;;;;;;;8.53;8.17;;;8.30;99.90;;;;;;5079517;28;20486;-82
2023/11/09 03:57:10;;;;;;;8.70;8.10;;;8.20;99.90;;;;;;5079368;28;20457;-81
2023/11/09 03:59:39;;;;;;;8.17;7.93;;;8.20;99.90;;;;;;5082674;28;20457;-80
2023/11/09 04:02:09;;;;;;;8.00;7.70;;;8.20;99.90;;;;;;5078925;28;20475;-82
2023/11/09 04:04:37;;;;;;;8.47;8.17;;;8.20;99.90;;;;;;5077136;28;20469;-82
2023/11/09 04:07:06;;;;;;;8.70;8.20;;;8.20;99.90;;;;;;5078330;28;20524;-79
2023/11/09 04:09:34;;;;;;;8.17;7.97;;;8.30;99.90;;;;;;5078718;28;20801;-81
2023/11/09 04:12:05;;;;;;;8.73;8.33;;;8.30;99.90;;;;;;5072665;28;20490;-79
2023/11/09 04:14:34;;;;;;;9.30;8.90;;;8.30;99.90;;;;;;5073048;28;20455;-79
2023/11/09 04:17:03;;;;;;;9.40;8.77;;;8.30;99.90;;;;;;5072560;28;20455;-80
2023/11/09 04:19:34;;;;;;;9.83;9.10;;;8.20;99.90;;;;;;5077956;28;20529;-80
2023/11/09 04:22:04;;;;;;;9.00;8.50;;;8.20;99.90;;;;;;5079158;28;21225;-81
2023/11/09 04:24:32;;;;;;;9.33;8.73;;;8.10;99.90;;;;;;5070892;28;20458;-81
2023/11/09 04:27:01;;;;;;;9.00;8.70;;;8.20;99.90;;;;;;5074748;28;20512;-82
2023/11/09 04:29:30;;;;;;;9.00;8.60;;;8.20;99.90;;;;;;5075664;28;20457;-80
2023/11/09 04:31:58;;;;;;;8.93;8.53;;;8.30;99.90;;;;;;5073459;28;20496;-80
2023/11/09 04:34:28;;;;;;;9.03;8.53;;;8.30;99.90;;;;;;5073840;28;20487;-81
2023/11/09 04:37:01;;;;;;;9.40;8.90;;;8.30;99.90;;;;;;5076920;28;20456;-82
2023/11/09 04:39:31;;;;;;;8.53;8.13;;;8.30;99.90;;;;;;5076231;28;20455;-80
2023/11/09 04:41:59;;;;;;;8.43;8.23;;;8.30;99.90;;;;;;5078942;28;20474;-81
2023/11/09 04:44:28;;;;;;;9.23;8.83;;;8.30;99.90;;;;;;5070947;28;21157;-80
2023/11/09 04:47:03;;;;;;;9.13;8.70;;;8.30;99.90;;;;;;5071967;28;20455;-83
2023/11/09 04:49:37;;;;;;;9.70;9.20;;;8.30;99.90;;;;;;5077253;28;20519;-80
2023/11/09 04:52:08;;;;;;;9.47;9.03;;;8.30;99.90;;;;;;5072755;28;20481;-83
2023/11/09 04:54:45;;;;;;;9.90;9.40;;;8.30;99.90;;;;;;5075388;28;20455;-79
2023/11/09 05:08:24;;;;;;;9.03;8.53;;;8.30;99.90;;;;;;5070841;28;20974;-81
2023/11/09 05:10:52;;;;;;;9.40;9.00;;;8.30;99.90;;;;;;5076001;28;20461;-79
2023/11/09 05:13:21;;;;;;;10.15;9.65;;;8.30;99.90;;;;;;5071214;28;20453;-80
2023/11/09 05:15:49;;;;;;;9.10;8.70;;;8.30;99.90;;;;;;5075095;28;20207;-81
2023/11/09 05:18:17;;;;;;;9.10;8.80;;;8.40;99.90;;;;;;5075428;28;20519;-82
2023/11/09 05:20:45;;;;;;;9.00;8.60;;;8.40;99.90;;;;;;5072672;28;20455;-80
2023/11/09 05:23:16;;;;;;;9.70;9.20;;;8.50;99.90;;;;;;5075424;28;20477;-81
2023/11/09 05:25:45;;;;;;;10.17;9.67;;;8.50;99.90;;;;;;5076930;28;20520;-83
2023/11/09 05:28:17;;;;;;;8.77;8.47;;;8.50;99.90;;;;;;5084932;28;20500;-82
2023/11/09 05:30:47;;;;;;;8.63;8.30;;;8.50;99.90;;;;;;5080432;28;20470;-82
2023/11/09 05:33:17;;;;;;;8.60;8.30;;;8.50;99.90;;;;;;5079231;28;20532;-82
2023/11/09 05:35:49;;;;;;;8.67;8.27;;;8.50;99.90;;;;;;5077169;28;20442;-79
2023/11/09 05:38:23;;;;;;;8.37;8.07;;;8.50;99.90;;;;;;5079975;28;20569;-81
2023/11/09 05:40:54;;;;;;;8.40;8.10;;;8.50;99.90;;;;;;5083720;28;20791;-83
2023/11/09 05:43:23;;;;;;;8.13;7.80;;;8.50;99.90;;;;;;5081048;28;20475;-82
2023/11/09 05:45:53;;;;;;;7.53;7.33;;;8.50;99.90;;;;;;5071174;28;20550;-81
2023/11/09 05:48:24;;;;;;;7.57;7.20;;;8.40;99.90;;;;;;5081777;28;20455;-81
2023/11/09 05:50:54;;;;;;;7.97;7.67;;;8.40;99.90;;;;;;5077167;28;21070;-82
2023/11/09 05:53:23;;;;;;;7.63;7.43;;;8.40;99.90;;;;;;5072527;28;21029;-80
2023/11/09 05:55:53;;;;;;;7.73;7.33;;;8.40;99.90;;;;;;5080107;28;20461;-81
2023/11/09 05:58:22;;;;;;;8.10;7.80;;;8.40;99.90;;;;;;5074013;28;21049;-80
2023/11/09 06:00:52;;;;;;;7.60;7.30;;;8.40;99.90;;;;;;5078528;28;20540;-83
2023/11/09 06:03:21;;;;;;;8.03;7.60;;;8.40;99.90;;;;;;5068957;28;20569;-82
2023/11/09 06:05:52;;;;;;;7.40;7.20;;;8.40;99.90;;;;;;5074107;28;21024;-82
2023/11/09 06:08:20;;;;;;;7.77;7.37;;;8.50;99.90;;;;;;5074821;28;20998;-82
2023/11/09 06:10:49;;;;;;;8.63;8.13;;;8.40;99.90;;;;;;5075979;28;21140;-83
2023/11/09 06:13:19;;;;;;;8.63;8.03;;;8.40;99.90;;;;;;5075746;28;21108;-82
2023/11/09 06:15:51;;;;;;;7.93;7.53;;;8.50;99.90;;;;;;5077176;28;20472;-82
2023/11/09 06:18:19;;;;;;;7.73;7.43;;;8.50;99.90;;;;;;5079008;28;20607;-81
2023/11/09 06:20:48;;;;;;;8.00;7.70;;;8.50;99.90;;;;;;5075447;28;20577;-84
2023/11/09 06:23:17;;;;;;;8.60;8.00;;;8.50;99.90;;;;;;5076530;28;21035;-82
2023/11/09 06:25:45;;;;;;;7.27;6.97;;;8.50;99.90;;;;;;5077570;28;20453;-82
2023/11/09 06:28:15;;;;;;;8.13;7.63;;;8.50;99.90;;;;;;5072584;28;20457;-81
2023/11/09 06:30:44;;;;;;;8.03;7.73;;;8.50;99.90;;;;;;5075172;28;20451;-82
2023/11/09 06:33:13;;;;;;;7.43;7.03;;;8.50;99.90;;;;;;5075495;28;20474;-83
2023/11/09 06:35:41;;;;;;;8.50;8.10;;;8.60;99.90;;;;;;5070065;28;20457;-82
2023/11/09 06:38:09;;;;;;;7.50;7.30;;;8.60;99.90;;;;;;5074479;28;20454;-84
2023/11/09 06:40:38;;;;;;;7.37;7.10;;;8.50;99.90;;;;;;5078850;28;20454;-83
2023/11/09 06:43:07;;;;;;;7.17;6.87;;;8.60;99.90;;;;;;5081742;28;20474;-82
2023/11/09 06:45:35;;;;;;;6.97;6.77;;;8.50;99.90;;;;;;5080173;28;20453;-84
2023/11/09 06:48:05;;;;;;;7.50;7.13;;;8.50;99.90;;;;;;5082667;28;20478;-83
2023/11/09 06:50:33;;;;;;;7.80;7.50;;;8.50;99.90;;;;;;5079687;28;20472;-83
2023/11/09 06:53:02;;;;;;;7.53;7.23;;;8.60;99.90;;;;;;5080641;28;20975;-81
2023/11/09 06:55:30;;;;;;;7.80;7.50;;;8.50;99.90;;;;;;5079355;28;20538;-83
2023/11/09 06:57:58;;;;;;;8.40;8.00;;;8.50;99.90;;;;;;5072921;28;21159;-82
2023/11/09 07:00:27;;;;;;;8.20;7.90;;;8.60;99.90;;;;;;5073756;28;20458;-83
2023/11/09 07:02:57;;;;;;;7.60;7.30;;;8.60;99.90;;;;;;5075733;28;20545;-82
2023/11/09 07:05:27;;;;;;;7.60;7.40;;;8.60;99.90;;;;;;5077390;28;20494;-82
2023/11/09 07:07:56;;;;;;;7.87;7.57;;;8.60;99.90;;;;;;5078085;28;20479;-82
2023/11/09 07:10:25;;;;;;;8.20;7.90;;;8.70;99.90;;;;;;5076117;28;20450;-82
2023/11/09 07:12:53;;;;;;;8.40;8.10;;;8.70;99.90;;;;;;5079032;28;20527;-83
2023/11/09 07:15:21;;;;;;;8.00;7.80;;;8.60;99.90;;;;;;5077009;28;20565;-83
2023/11/09 07:17:49;;;;;;;9.30;8.90;;;8.60;99.90;;;;;;5078789;28;20451;-84
2023/11/09 07:20:18;;;;;;;8.83;8.53;;;8.60;99.90;;;;;;5075765;28;20458;-82
2023/11/09 07:22:50;;;;;;;8.70;8.30;;;8.60;99.90;;;;;;5080114;28;20478;-81
2023/11/09 07:25:22;;;;;;;7.40;7.10;;;8.60;99.90;;;;;;5079658;28;20453;-81
2023/11/09 07:27:51;;;;;;;7.53;7.23;;;8.60;99.90;;;;;;5079882;28;20503;-81
2023/11/09 07:30:20;;;;;;;8.03;7.77;;;8.60;99.90;;;;;;5080026;28;20809;-81
2023/11/09 07:32:48;;;;;;;7.87;7.47;;;8.70;99.90;;;;;;5078127;28;20471;-82
2023/11/09 07:35:16;;;;;;;7.57;7.37;;;8.70;99.90;;;;;;5080832;28;20828;-83
2023/11/09 07:37:45;;;;;;;8.27;7.90;;;8.70;99.90;;;;;;5081425;28;20470;-81
2023/11/09 07:40:14;;;;;;;7.53;7.33;;;8.70;99.90;;;;;;5079019;28;20489;-83
2023/11/09 07:42:45;;;;;;;7.30;7.10;;;8.70;99.90;;;;;;5078446;28;20480;-81
2023/11/09 07:45:14;;;;;;;7.50;7.30;;;8.70;99.90;;;;;;5073407;28;20490;-79
2023/11/09 07:47:43;;;;;;;7.70;7.40;;;8.80;99.90;;;;;;5077092;28;20469;-81
2023/11/09 07:50:13;;;;;;;8.77;8.57;;;8.80;99.90;;;;;;5079224;28;20451;-84
2023/11/09 07:52:42;;;;;;;8.60;8.30;;;8.80;99.90;;;;;;5074832;28;21176;-80
2023/11/09 07:55:11;;;;;;;9.50;9.10;;;8.70;99.90;;;;;;5072099;28;20470;-81
2023/11/09 07:57:41;;;;;;;9.53;9.13;;;8.80;99.90;;;;;;5077185;28;20505;-81
2023/11/09 08:00:12;;;;;;;8.87;8.57;;;8.80;99.90;;;;;;5077105;28;21094;-81
2023/11/09 08:02:41;;;;;;;9.27;8.70;;;8.70;99.90;;;;;;5078115;28;20576;-82
2023/11/09 08:05:13;;;;;;;9.30;8.90;;;8.80;99.90;;;;;;5068479;28;20520;-83
2023/11/09 08:07:45;;;;;;;8.87;8.40;;;8.80;99.90;;;;;;5075014;28;20540;-82
2023/11/09 08:10:14;;;;;;;8.93;8.43;;;8.80;99.90;;;;;;5079668;28;20852;-81
2023/11/09 08:12:47;;;;;;;8.87;8.57;;;8.80;99.90;;;;;;5073928;28;20536;-82
2023/11/09 08:15:18;;;;;;;8.33;8.13;;;8.80;99.90;;;;;;5073092;28;20776;-82
2023/11/09 08:17:47;;;;;;;9.63;9.23;;;8.80;99.90;;;;;;5078830;28;20454;-82
2023/11/09 08:20:16;;;;;;;8.53;8.33;;;8.80;99.90;;;;;;5077146;28;20539;-81
2023/11/09 08:22:46;;;;;;;8.70;8.40;;;8.80;99.90;;;;;;5075649;28;21069;-82
2023/11/09 08:25:17;;;;;;;8.50;8.10;;;8.80;99.90;;;;;;5075967;28;20516;-81
2023/11/09 08:27:47;;;;;;;8.70;8.40;;;8.80;99.90;;;;;;5077084;28;20461;-83
2023/11/09 08:30:17;;;;;;;8.17;7.87;;;8.80;99.90;;;;;;5073904;28;20446;-81
2023/11/09 08:32:47;;;;;;;8.97;8.57;;;8.80;99.90;;;;;;5073797;28;20918;-81
2023/11/09 08:35:17;;;;;;;9.50;9.10;;;8.80;99.90;;;;;;5074608;28;20550;-81
2023/11/09 08:37:47;;;;;;;8.50;8.30;;;8.90;99.90;;;;;;5078363;28;20556;-83
2023/11/09 08:40:17;;;;;;;9.57;9.17;;;8.90;99.90;;;;;;5077148;28;20464;-82
2023/11/09 08:42:49;;;;;;;9.23;8.83;;;8.90;99.90;;;;;;5077184;28;20503;-81
2023/11/09 08:45:18;;;;;;;9.87;9.47;;;8.80;99.90;;;;;;5074964;28;20501;-83
2023/11/09 08:47:47;;;;;;;9.60;9.30;;;8.80;99.90;;;;;;5078375;28;20451;-81
2023/11/09 08:50:16;;;;;;;10.13;9.80;;;8.90;99.90;;;;;;5073472;28;20472;-80
2023/11/09 08:52:45;;;;;;;9.20;8.90;;;9.00;99.90;;;;;;5078053;28;20483;-81
2023/11/09 08:55:13;;;;;;;9.50;9.10;;;9.00;99.90;;;;;;5076429;28;20475;-81
2023/11/09 08:57:42;;;;;;;9.90;9.50;;;9.10;99.90;;;;;;5074973;28;20451;-82
2023/11/09 09:00:13;;;;;;;9.43;9.13;;;9.10;99.90;;;;;;5079024;28;20446;-80
2023/11/09 09:02:48;;;;;;;9.83;9.43;;;9.20;99.90;;;;;;5076823;28;21309;-80
2023/11/09 09:05:19;;;;;;;9.80;9.40;;;9.10;99.90;;;;;;5074056;28;20531;-80
2023/11/09 09:07:50;;;;;;;9.57;9.27;;;9.20;99.90;;;;;;5076469;28;20518;-79
2023/11/09 09:10:26;;;;;;;9.17;8.77;;;9.20;99.90;;;;;;5076784;28;20459;-82
2023/11/09 09:12:56;;;;;;;8.80;8.33;;;9.20;99.90;;;;;;5075886;28;20492;-82
2023/11/09 09:15:28;;;;;;;8.90;8.60;;;9.30;99.90;;;;;;5080337;28;20478;-80
2023/11/09 09:17:58;;;;;;;9.07;8.73;;;9.30;99.90;;;;;;5083680;28;20454;-82
2023/11/09 09:20:28;;;;;;;9.07;8.77;;;9.30;99.90;;;;;;5083187;28;20452;-82
2023/11/09 09:22:59;;;;;;;8.70;8.50;;;9.40;99.90;;;;;;5076403;28;20477;-80
2023/11/09 09:25:29;;;;;;;8.90;8.60;;;9.50;99.90;;;;;;5076508;28;20458;-81
2023/11/09 09:28:01;;;;;;;9.60;9.27;;;9.40;99.90;;;;;;5078330;28;20592;-82
2023/11/09 09:30:31;;;;;;;8.83;8.40;;;9.40;99.90;;;;;;5082937;28;20529;-83
2023/11/09 09:33:01;;;;;;;9.23;9.03;;;9.50;99.90;;;;;;5080850;28;20470;-82
2023/11/09 09:35:32;;;;;;;8.77;8.47;;;9.50;99.90;;;;;;5080593;28;21007;-84
2023/11/09 09:38:15;;;;;;;9.00;8.80;;;9.50;99.90;;;;;;5078960;28;20548;-82
2023/11/09 09:40:47;;;;;;;9.00;8.80;;;9.60;99.90;;;;;;5080790;28;20464;-82
2023/11/09 09:43:22;;;;;;;9.20;8.90;;;9.50;99.90;;;;;;5078504;28;20469;-81
2023/11/09 09:45:59;;;;;;;9.77;9.47;;;9.50;99.90;;;;;;5075412;28;20431;-80
2023/11/09 09:48:30;;;;;;;9.13;8.90;;;9.50;99.90;;;;;;5082232;28;20446;-82
2023/11/09 09:51:00;;;;;;;9.70;9.20;;;9.50;99.90;;;;;;5079882;28;20536;-84
2023/11/09 09:53:30;;;;;;;9.37;9.07;;;9.50;99.90;;;;;;5078320;28;20474;-81
2023/11/09 09:56:00;;;;;;;9.20;9.00;;;9.60;99.90;;;;;;5078205;28;20562;-81
2023/11/09 09:58:31;;;;;;;9.73;9.43;;;9.60;99.90;;;;;;5077099;28;20546;-81
2023/11/09 10:01:03;;;;;;;9.17;8.93;;;9.70;99.90;;;;;;5077528;28;20446;-83
2023/11/09 10:03:36;;;;;;;9.10;8.90;;;9.70;99.90;;;;;;5079297;28;20484;-81
2023/11/09 10:06:06;;;;;;;9.67;9.27;;;9.70;99.90;;;;;;5081800;28;20451;-81
2023/11/09 10:08:36;;;;;;;9.23;8.93;;;9.70;99.90;;;;;;5076940;28;20482;-81
2023/11/09 10:11:05;;;;;;;8.97;8.70;;;9.70;99.90;;;;;;5077833;28;21029;-82
2023/11/09 10:13:35;;;;;;;9.50;9.20;;;9.80;99.90;;;;;;5081003;28;20477;-84
2023/11/09 10:16:06;;;;;;;9.27;8.97;;;9.80;99.90;;;;;;5081705;28;20908;-83
2023/11/09 10:18:34;;;;;;;9.40;9.10;;;9.80;99.90;;;;;;5078600;28;20466;-81
2023/11/09 10:21:04;;;;;;;9.30;9.03;;;9.80;99.90;;;;;;5080131;28;20438;-83
2023/11/09 10:23:32;;;;;;;9.40;9.10;;;9.80;99.90;;;;;;5076690;28;20636;-83
2023/11/09 10:26:02;;;;;;;9.30;9.10;;;9.90;99.90;;;;;;5081619;28;20451;-82
2023/11/09 10:28:32;;;;;;;9.27;9.07;;;9.90;99.90;;;;;;5074652;28;20539;-83
2023/11/09 10:31:01;;;;;;;9.73;9.43;;;9.90;99.90;;;;;;5079709;28;20466;-84
2023/11/09 10:33:32;;;;;;;9.30;9.10;;;9.90;99.90;;;;;;5082681;28;20470;-83
2023/11/09 10:36:04;;;;;;;9.60;9.40;;;10.00;99.90;;;;;;5080054;28;21289;-82
2023/11/09 10:38:36;;;;;;;9.33;9.13;;;10.00;99.90;;;;;;5079842;28;20454;-82
2023/11/09 10:41:05;;;;;;;9.60;9.30;;;10.10;99.90;;;;;;5079098;28;20524;-83
2023/11/09 10:43:59;;;;;;;9.67;9.47;;;10.10;99.90;;;;;;5079698;28;20522;-84
2023/11/09 10:46:37;;;;;;;9.20;9.00;;;10.10;99.90;;;;;;5080448;28;20489;-82
2023/11/09 10:49:11;;;;;;;9.80;9.50;;;10.10;99.90;;;;;;5079013;28;20537;-81
2023/11/09 10:51:44;;;;;;;10.30;9.90;;;10.10;99.90;;;;;;5081445;28;20451;-82
2023/11/09 10:54:15;;;;;;;10.07;9.77;;;10.20;99.90;;;;;;5081928;28;20459;-85
2023/11/09 10:56:44;;;;;;;9.90;9.70;;;10.30;99.90;;;;;;5082021;28;20475;-83
2023/11/09 10:59:13;;;;;;;10.53;10.23;;;10.40;99.90;;;;;;5078405;28;20948;-83
2023/11/09 11:01:44;;;;;;;10.00;9.70;;;10.40;99.90;;;;;;5077212;28;20446;-82
2023/11/09 11:04:18;;;;;;;10.10;9.90;;;10.50;99.90;;;;;;5078121;28;20524;-84
2023/11/09 11:06:51;;;;;;;9.87;9.67;;;10.50;99.90;;;;;;5076858;28;20515;-82
2023/11/09 11:09:26;;;;;;;9.93;9.73;;;10.50;99.90;;;;;;5072874;28;20463;-84
2023/11/09 11:11:58;;;;;;;9.80;9.60;;;10.50;99.90;;;;;;5078735;28;20538;-84
2023/11/09 11:14:33;;;;;;;9.77;9.57;;;10.50;99.90;;;;;;5077466;28;20486;-84
2023/11/09 11:17:31;;;;;;;9.97;9.70;;;10.50;99.90;;;;;;5082010;28;20490;-84
2023/11/09 11:20:33;;;;;;;9.60;9.40;;;10.50;99.90;;;;;;5070405;28;20459;-81
2023/11/09 11:23:40;;;;;;;10.30;10.00;;;10.50;99.90;;;;;;5074230;28;20467;-83
2023/11/09 11:26:11;;;;;;;10.67;10.27;;;10.50;99.90;;;;;;5078871;28;20442;-83
2023/11/09 11:28:40;;;;;;;10.60;10.20;;;10.60;99.90;;;;;;5078234;28;20458;-82
2023/11/09 11:31:10;;;;;;;10.10;9.90;;;10.60;99.90;;;;;;5079101;28;20534;-83
2023/11/09 11:33:40;;;;;;;10.60;10.30;;;10.70;99.90;;;;;;5074793;28;20572;-82
2023/11/09 11:36:26;;;;;;;10.63;10.43;;;10.70;99.90;;;;;;5078030;28;20493;-81
2023/11/09 11:39:20;;;;;;;10.53;10.23;;;10.70;99.90;;;;;;5077486;28;20466;-83
2023/11/09 11:41:50;;;;;;;10.00;9.80;;;10.70;99.90;;;;;;5083371;28;20594;-81
2023/11/09 11:44:18;;;;;;;10.07;9.87;;;10.70;99.90;;;;;;5074280;28;20459;-81
2023/11/09 11:46:58;;;;;;;10.50;10.30;;;10.80;99.90;;;;;;5076061;28;21266;-82
2023/11/09 11:49:27;;;;;;;10.03;9.83;;;10.80;99.90;;;;;;5076896;28;20446;-82
2023/11/09 11:51:58;;;;;;;9.60;9.40;;;10.90;99.90;;;;;;5075100;28;20481;-81
2023/11/09 11:54:30;;;;;;;10.07;9.77;;;10.90;99.90;;;;;;5079950;28;20455;-82
2023/11/09 11:56:59;;;;;;;9.97;9.77;;;11.00;99.90;;;;;;5077654;28;20565;-82
2023/11/09 11:59:31;;;;;;;9.90;9.70;;;11.10;99.90;;;;;;5077528;28;20951;-80
2023/11/09 12:02:00;;;;;;;9.80;9.60;;;11.10;99.90;;;;;;5076512;28;20481;-82
2023/11/09 12:04:29;;;;;;;9.67;9.47;;;11.10;99.90;;;;;;5077206;28;20532;-83
2023/11/09 12:07:05;;;;;;;9.70;9.50;;;11.20;99.90;;;;;;5076270;28;20562;-82
2023/11/09 12:09:36;;;;;;;10.40;10.20;;;11.30;99.90;;;;;;5078034;28;20963;-81
2023/11/09 12:12:12;;;;;;;10.00;9.80;;;11.30;99.90;;;;;;5076652;28;20577;-83
2023/11/09 12:14:42;;;;;;;9.60;9.50;;;11.40;99.90;;;;;;5074175;28;20557;-80
2023/11/09 12:17:10;;;;;;;9.80;9.60;;;11.40;99.90;;;;;;5076515;28;20473;-83
2023/11/09 12:19:43;;;;;;;10.77;10.37;;;11.50;99.90;;;;;;5078517;28;20455;-82
2023/11/09 12:22:14;;;;;;;9.90;9.70;;;11.50;99.90;;;;;;5076320;28;20478;-82
2023/11/09 12:24:44;;;;;;;9.90;9.70;;;11.50;99.90;;;;;;5080170;28;20487;-83
2023/11/09 12:27:13;;;;;;;10.03;9.83;;;11.50;99.90;;;;;;5074269;28;20473;-83
2023/11/09 12:29:42;;;;;;;9.63;9.43;;;11.50;99.90;;;;;;5075136;28;20463;-83
2023/11/09 12:32:12;;;;;;;9.40;9.20;;;11.50;99.90;;;;;;5071457;28;20566;-84
2023/11/09 12:34:42;;;;;;;9.40;9.20;;;11.50;99.90;;;;;;5075089;28;21441;-81
2023/11/09 12:37:13;;;;;;;9.70;9.50;;;11.50;99.90;;;;;;5072656;28;20482;-83
2023/11/09 12:39:45;;;;;;;9.83;9.60;;;11.60;99.90;;;;;;5074217;28;20545;-82
2023/11/09 12:42:23;;;;;;;9.40;9.30;;;11.60;99.90;;;;;;5075596;28;20482;-82
2023/11/09 12:44:54;;;;;;;9.73;9.53;;;11.70;99.90;;;;;;5073893;28;20450;-83
2023/11/09 12:47:25;;;;;;;9.63;9.33;;;11.70;99.90;;;;;;5077236;28;20452;-81
2023/11/09 12:50:03;;;;;;;10.00;9.80;;;11.60;99.90;;;;;;5076719;28;20474;-80
2023/11/09 12:52:32;;;;;;;9.57;9.37;;;11.60;99.90;;;;;;5076601;28;20481;-82
2023/11/09 12:55:06;;;;;;;9.30;9.20;;;11.60;99.90;;;;;;5069473;28;20498;-81
2023/11/09 12:57:40;;;;;;;9.70;9.50;;;11.70;99.90;;;;;;5074976;28;20521;-82
2023/11/09 13:00:19;;;;;;;10.70;10.50;;;11.70;99.90;;;;;;5076041;28;20484;-80
2023/11/09 13:02:56;;;;;;;9.40;9.20;;;11.80;99.90;;;;;;5074753;28;20515;-81
2023/11/09 13:05:31;;;;;;;9.87;9.67;;;11.90;99.90;;;;;;5078063;28;20516;-78
2023/11/09 13:08:08;;;;;;;9.87;9.67;;;11.80;99.90;;;;;;5071700;28;20450;-80
2023/11/09 13:10:40;;;;;;;10.00;9.80;;;11.90;99.90;;;;;;5074099;28;20489;-79
2023/11/09 13:13:24;;;;;;;9.80;9.70;;;11.90;99.90;;;;;;5076435;28;20577;-80
2023/11/09 13:15:56;;;;;;;10.10;9.90;;;12.10;99.90;;;;;;5071390;28;20454;-79
2023/11/09 13:18:27;;;;;;;10.20;10.00;;;12.00;99.90;;;;;;5073417;28;20485;-80
2023/11/09 13:20:57;;;;;;;10.30;10.00;;;11.90;99.90;;;;;;5078643;28;20468;-80